Time;durP1;ratioP1;P1;durP2;ratioP2;P2;SDS_P1;SDS_P2;PMS_P1;PMS_P2;Temp;Humidity;BMP_temperature;BMP_pressure;BME280_temperature;BME280_humidity;BME280_pressure;Samples;Min_cycle;Max_cycle;Signal;HPM_P1;HPM_P2
2023/07/05 00:02:07;;;;;;;0.63;0.63;;;13.10;99.90;;;;;;5011743;28;20210;-72
2023/07/05 00:04:34;;;;;;;0.50;0.50;;;13.10;99.90;;;;;;4995559;28;20213;-71
2023/07/05 00:07:00;;;;;;;0.55;0.55;;;13.10;99.90;;;;;;5014129;28;20194;-71
2023/07/05 00:09:26;;;;;;;0.40;0.40;;;13.20;99.90;;;;;;5011840;28;20210;-71
2023/07/05 00:11:51;;;;;;;0.43;0.43;;;13.20;99.90;;;;;;5024502;28;20190;-71
2023/07/05 00:14:17;;;;;;;0.40;0.40;;;13.20;99.90;;;;;;5033046;28;20214;-71
2023/07/05 00:16:43;;;;;;;0.65;0.65;;;13.20;99.90;;;;;;5033401;28;20186;-71
2023/07/05 00:19:10;;;;;;;0.40;0.40;;;13.20;99.90;;;;;;5031463;28;20229;-71
2023/07/05 00:21:36;;;;;;;0.80;0.80;;;13.20;99.90;;;;;;5033055;28;20241;-71
2023/07/05 00:24:05;;;;;;;0.52;0.52;;;13.20;99.90;;;;;;5031716;28;20222;-71
2023/07/05 00:26:30;;;;;;;0.40;0.40;;;13.30;99.90;;;;;;5032434;28;20255;-71
2023/07/05 00:28:56;;;;;;;0.40;0.40;;;13.30;99.90;;;;;;5031751;28;20633;-71
2023/07/05 00:31:25;;;;;;;0.45;0.45;;;13.30;99.90;;;;;;5018215;28;20573;-71
2023/07/05 00:33:54;;;;;;;0.60;0.60;;;13.30;99.90;;;;;;5012802;28;20211;-71
2023/07/05 00:36:22;;;;;;;0.60;0.60;;;13.30;99.90;;;;;;5013157;28;20197;-71
2023/07/05 00:38:48;;;;;;;0.68;0.68;;;13.30;99.90;;;;;;5052537;28;20200;-71
2023/07/05 00:41:14;;;;;;;0.30;0.30;;;13.30;99.90;;;;;;5043939;28;20677;-70
2023/07/05 00:43:47;;;;;;;0.40;0.40;;;13.30;99.90;;;;;;5032625;28;20194;-71
2023/07/05 00:46:24;;;;;;;0.80;0.45;;;13.40;99.90;;;;;;5014359;28;20644;-70
2023/07/05 00:48:59;;;;;;;4.28;0.93;;;13.30;99.90;;;;;;5014607;28;20198;-71
2023/07/05 00:51:51;;;;;;;1.65;1.20;;;13.30;99.90;;;;;;5014174;28;20657;-71
2023/07/05 00:54:22;;;;;;;0.40;0.40;;;13.30;99.90;;;;;;5018884;28;20276;-71
2023/07/05 00:56:54;;;;;;;0.32;0.32;;;13.40;99.90;;;;;;5032028;28;20190;-71
2023/07/05 00:59:25;;;;;;;0.38;0.38;;;13.60;99.90;;;;;;5031941;28;20363;-71
2023/07/05 01:01:51;;;;;;;0.35;0.35;;;13.70;99.90;;;;;;5032632;28;20186;-71
2023/07/05 01:04:18;;;;;;;0.73;0.65;;;13.70;99.90;;;;;;4999737;23;20287;-70
2023/07/05 01:06:44;;;;;;;0.60;0.60;;;13.70;99.90;;;;;;4973308;28;20875;-70
2023/07/05 01:09:10;;;;;;;0.40;0.40;;;13.70;99.90;;;;;;4956402;28;20674;-71
2023/07/05 01:11:39;;;;;;;0.60;0.60;;;13.80;99.90;;;;;;4953871;29;20193;-69
2023/07/05 01:14:15;;;;;;;0.50;0.50;;;13.90;99.90;;;;;;4954723;29;20213;-70
2023/07/05 01:16:56;;;;;;;0.40;0.40;;;13.90;99.90;;;;;;4954419;29;20610;-71
2023/07/05 01:19:53;;;;;;;0.40;0.40;;;13.80;99.90;;;;;;4954072;29;20193;-70
2023/07/05 01:22:45;;;;;;;0.40;0.40;;;13.70;99.90;;;;;;4953864;29;20663;-70
2023/07/05 01:25:17;;;;;;;0.35;0.35;;;13.50;99.90;;;;;;4943287;29;20209;-70
2023/07/05 01:27:54;;;;;;;0.30;0.30;;;13.50;99.90;;;;;;4954229;29;20193;-70
2023/07/05 01:30:39;;;;;;;0.50;0.50;;;13.40;99.90;;;;;;4952692;29;20542;-70
2023/07/05 01:33:18;;;;;;;0.50;0.50;;;13.30;99.90;;;;;;4954033;29;20228;-70
2023/07/05 01:35:54;;;;;;;0.38;0.38;;;13.20;99.90;;;;;;4952551;29;20256;-70
2023/07/05 01:38:20;;;;;;;0.30;0.30;;;13.20;99.90;;;;;;4971094;28;20228;-71
2023/07/05 01:40:51;;;;;;;0.30;0.30;;;13.10;99.90;;;;;;4972800;28;20227;-71
2023/07/05 01:43:18;;;;;;;0.63;0.63;;;13.10;99.90;;;;;;4972892;28;20562;-70
2023/07/05 01:45:55;;;;;;;0.50;0.50;;;13.20;99.90;;;;;;4973292;28;20227;-70
2023/07/05 01:48:58;;;;;;;0.30;0.30;;;13.10;99.90;;;;;;4972684;28;20204;-71
2023/07/05 01:52:02;;;;;;;1.33;0.90;;;13.20;99.90;;;;;;4973018;28;20196;-71
2023/07/05 01:55:04;;;;;;;1.38;0.75;;;13.10;99.90;;;;;;4963843;28;20223;-69
2023/07/05 01:57:39;;;;;;;0.40;0.40;;;13.10;99.90;;;;;;4972044;28;20199;-70
2023/07/05 02:00:25;;;;;;;0.43;0.43;;;13.00;99.90;;;;;;4972169;28;20754;-70
2023/07/05 02:03:14;;;;;;;0.43;0.43;;;13.00;99.90;;;;;;4971899;28;20655;-70
2023/07/05 02:05:40;;;;;;;0.60;0.60;;;13.00;99.90;;;;;;4953315;28;20695;-69
2023/07/05 02:08:06;;;;;;;0.30;0.30;;;13.10;99.90;;;;;;4962477;28;20543;-70
2023/07/05 02:10:32;;;;;;;0.40;0.40;;;13.20;99.90;;;;;;4954511;28;20196;-69
2023/07/05 02:13:01;;;;;;;0.52;0.52;;;13.30;99.90;;;;;;4972979;28;20232;-71
2023/07/05 02:15:27;;;;;;;1.38;0.40;;;13.30;99.90;;;;;;4973000;28;20707;-71
2023/07/05 02:17:52;;;;;;;0.55;0.55;;;13.30;99.90;;;;;;4972895;28;20196;-71
2023/07/05 02:20:19;;;;;;;0.45;0.45;;;13.30;99.90;;;;;;4969255;28;20216;-71
2023/07/05 02:22:44;;;;;;;0.60;0.60;;;13.20;99.90;;;;;;4992366;28;20191;-71
2023/07/05 02:25:10;;;;;;;0.40;0.40;;;13.30;99.90;;;;;;4992083;28;20198;-70
2023/07/05 02:27:36;;;;;;;0.40;0.40;;;13.20;99.90;;;;;;4992010;28;20195;-70
2023/07/05 02:30:03;;;;;;;0.43;0.43;;;13.20;99.90;;;;;;4991970;28;20203;-71
2023/07/05 02:32:28;;;;;;;0.88;0.50;;;13.20;99.90;;;;;;4991626;28;20218;-71
2023/07/05 02:34:58;;;;;;;0.47;0.47;;;13.20;99.90;;;;;;4991861;28;20203;-71
2023/07/05 02:37:24;;;;;;;4.47;1.48;;;13.10;99.90;;;;;;4990435;28;20263;-71
2023/07/05 02:39:53;;;;;;;0.30;0.30;;;13.10;99.90;;;;;;4991559;28;20191;-71
2023/07/05 02:42:19;;;;;;;0.40;0.40;;;13.10;99.90;;;;;;4991375;28;20195;-70
2023/07/05 02:44:48;;;;;;;0.65;0.65;;;13.10;99.90;;;;;;4991584;28;20539;-71
2023/07/05 02:47:15;;;;;;;0.30;0.30;;;13.10;99.90;;;;;;4991723;28;20541;-71
2023/07/05 02:49:41;;;;;;;0.30;0.30;;;13.20;99.90;;;;;;4991212;28;20215;-70
2023/07/05 02:52:06;;;;;;;0.75;0.75;;;13.30;99.90;;;;;;4989880;28;20682;-71
2023/07/05 02:54:32;;;;;;;5.78;1.40;;;13.30;99.90;;;;;;4991238;28;20567;-71
2023/07/05 02:56:58;;;;;;;0.50;0.50;;;13.40;99.90;;;;;;4991372;28;20204;-68
2023/07/05 02:59:23;;;;;;;0.45;0.43;;;13.50;99.90;;;;;;4989368;28;20191;-71
2023/07/05 03:01:49;;;;;;;0.50;0.50;;;13.50;99.90;;;;;;4971086;28;20200;-71
2023/07/05 03:04:15;;;;;;;0.40;0.40;;;13.50;99.90;;;;;;4979091;28;20263;-69
2023/07/05 03:06:41;;;;;;;1.13;1.02;;;13.50;99.90;;;;;;4991475;28;20191;-71
2023/07/05 03:09:07;;;;;;;0.52;0.52;;;13.70;99.90;;;;;;4991420;28;20217;-71
2023/07/05 03:11:32;;;;;;;0.60;0.60;;;13.70;99.90;;;;;;4991144;28;20198;-71
2023/07/05 03:13:58;;;;;;;0.80;0.80;;;13.80;99.90;;;;;;4991634;28;20249;-72
2023/07/05 03:16:24;;;;;;;0.68;0.68;;;13.70;99.90;;;;;;4974281;28;20199;-72
2023/07/05 03:18:50;;;;;;;0.55;0.50;;;13.70;99.90;;;;;;4992039;28;20199;-73
2023/07/05 03:21:15;;;;;;;0.30;0.30;;;13.80;99.90;;;;;;4974141;28;20222;-71
2023/07/05 03:23:41;;;;;;;12.30;1.33;;;14.00;99.90;;;;;;4991248;28;20258;-70
2023/07/05 03:26:08;;;;;;;0.30;0.30;;;14.10;99.90;;;;;;4973601;28;20667;-72
2023/07/05 03:28:35;;;;;;;0.90;0.52;;;14.10;99.90;;;;;;4991045;28;20282;-72
2023/07/05 03:31:11;;;;;;;3.30;1.00;;;14.10;99.90;;;;;;4991620;28;20562;-72
2023/07/05 03:33:37;;;;;;;0.63;0.63;;;14.20;99.90;;;;;;4973342;28;20207;-71
2023/07/05 03:36:10;;;;;;;3.40;0.47;;;14.10;99.90;;;;;;4991851;28;20666;-71
2023/07/05 03:38:36;;;;;;;0.75;0.75;;;14.20;99.90;;;;;;4992614;28;20745;-70
2023/07/05 03:41:20;;;;;;;0.60;0.60;;;14.30;99.90;;;;;;4991567;28;20199;-71
2023/07/05 03:43:57;;;;;;;0.43;0.43;;;14.30;99.90;;;;;;4991790;28;20195;-71
2023/07/05 03:46:24;;;;;;;0.43;0.43;;;14.30;99.90;;;;;;4973814;28;20226;-71
2023/07/05 03:48:50;;;;;;;0.55;0.55;;;14.30;99.90;;;;;;4994852;28;20234;-71
2023/07/05 03:51:18;;;;;;;0.70;0.70;;;14.50;99.90;;;;;;4995173;28;20210;-71
2023/07/05 03:53:58;;;;;;;0.40;0.40;;;14.60;99.90;;;;;;5013362;28;20606;-71
2023/07/05 03:56:27;;;;;;;0.77;0.77;;;14.60;99.90;;;;;;5009881;28;20195;-72
2023/07/05 03:58:53;;;;;;;0.50;0.50;;;14.70;99.90;;;;;;4977510;28;20622;-72
2023/07/05 04:01:24;;;;;;;2.00;0.90;;;14.90;99.90;;;;;;4994085;28;20195;-71
2023/07/05 04:03:53;;;;;;;1.02;0.73;;;14.90;99.90;;;;;;4972027;28;20242;-71
2023/07/05 04:06:21;;;;;;;0.80;0.80;;;15.00;99.90;;;;;;4957148;28;20234;-69
2023/07/05 04:08:47;;;;;;;0.38;0.38;;;15.10;99.90;;;;;;4957695;28;20259;-71
2023/07/05 04:11:13;;;;;;;0.50;0.50;;;15.10;99.90;;;;;;4975061;28;20200;-72
2023/07/05 04:13:39;;;;;;;0.45;0.45;;;15.30;99.90;;;;;;4957270;28;20759;-71
2023/07/05 04:16:08;;;;;;;0.45;0.45;;;15.40;99.90;;;;;;4975051;28;20188;-69
2023/07/05 04:18:34;;;;;;;0.35;0.35;;;15.40;99.90;;;;;;4974537;28;20184;-69
2023/07/05 04:21:00;;;;;;;2.58;1.25;;;15.30;99.90;;;;;;4974814;28;20689;-71
2023/07/05 04:23:26;;;;;;;0.50;0.50;;;15.30;99.90;;;;;;4974559;28;20575;-70
2023/07/05 04:26:00;;;;;;;4.90;1.25;;;15.30;99.90;;;;;;4974783;28;20251;-70
2023/07/05 04:28:26;;;;;;;0.40;0.40;;;15.40;99.90;;;;;;4974590;28;20278;-71
2023/07/05 04:30:52;;;;;;;0.60;0.60;;;15.40;99.90;;;;;;4957415;28;20536;-71
2023/07/05 04:33:18;;;;;;;0.47;0.47;;;15.30;99.90;;;;;;4978204;28;20215;-72
2023/07/05 04:35:49;;;;;;;0.50;0.50;;;15.30;99.90;;;;;;4994013;28;20195;-70
2023/07/05 04:38:15;;;;;;;0.50;0.50;;;15.30;99.90;;;;;;4993748;28;20528;-72
2023/07/05 04:40:41;;;;;;;1.00;0.98;;;15.20;99.90;;;;;;4993893;28;20188;-72
2023/07/05 04:43:07;;;;;;;1.17;0.70;;;15.20;99.90;;;;;;4993833;28;20236;-72
2023/07/05 04:45:32;;;;;;;1.17;0.70;;;15.20;99.90;;;;;;4993709;28;20810;-72
2023/07/05 04:47:58;;;;;;;0.30;0.30;;;15.10;99.90;;;;;;4993936;28;20196;-71
2023/07/05 04:50:24;;;;;;;1.65;1.15;;;15.20;99.90;;;;;;4993393;28;20224;-71
2023/07/05 04:52:49;;;;;;;1.48;0.98;;;15.10;99.90;;;;;;4984282;28;20193;-71
2023/07/05 04:55:15;;;;;;;0.40;0.40;;;14.90;99.90;;;;;;4974213;28;20220;-71
2023/07/05 04:57:42;;;;;;;0.47;0.47;;;14.90;99.90;;;;;;4973580;28;20206;-71
2023/07/05 05:00:09;;;;;;;0.68;0.68;;;15.00;99.90;;;;;;4973014;28;20193;-69
2023/07/05 05:02:35;;;;;;;0.30;0.30;;;15.10;99.90;;;;;;4973693;28;20676;-72
2023/07/05 05:05:01;;;;;;;0.57;0.57;;;15.30;99.90;;;;;;4987469;28;20235;-71
2023/07/05 05:07:27;;;;;;;0.55;0.55;;;15.50;99.90;;;;;;4992940;28;20243;-72
2023/07/05 05:09:53;;;;;;;1.33;1.08;;;15.60;99.90;;;;;;4993201;28;20203;-71
2023/07/05 05:12:18;;;;;;;1.00;0.93;;;15.80;99.90;;;;;;4974918;28;20196;-71
2023/07/05 05:14:44;;;;;;;0.77;0.52;;;15.80;99.90;;;;;;4992713;28;20215;-72
2023/07/05 05:17:10;;;;;;;0.57;0.57;;;15.80;99.90;;;;;;4993174;28;20192;-72
2023/07/05 05:19:35;;;;;;;3.00;0.88;;;15.70;99.90;;;;;;4992874;28;20199;-71
2023/07/05 05:22:01;;;;;;;1.27;1.10;;;15.50;99.90;;;;;;4992934;28;20211;-72
2023/07/05 05:24:27;;;;;;;1.33;0.93;;;15.70;99.90;;;;;;4976835;28;20628;-74
2023/07/05 05:26:54;;;;;;;0.30;0.30;;;15.80;99.90;;;;;;4995111;28;20277;-74
2023/07/05 05:29:20;;;;;;;0.43;0.43;;;15.80;99.90;;;;;;4990092;28;20207;-73
2023/07/05 05:31:48;;;;;;;0.30;0.25;;;15.80;99.90;;;;;;4975985;28;20207;-75
2023/07/05 05:34:14;;;;;;;0.47;0.47;;;15.90;99.90;;;;;;4975915;28;20208;-76
2023/07/05 05:36:40;;;;;;;1.42;1.00;;;15.90;99.90;;;;;;4977992;28;20286;-75
2023/07/05 05:39:07;;;;;;;0.57;0.57;;;16.00;99.90;;;;;;4993882;28;20246;-73
2023/07/05 05:41:33;;;;;;;0.38;0.38;;;16.00;99.90;;;;;;4993557;28;20278;-73
2023/07/05 05:44:36;;;;;;;0.77;0.77;;;16.00;99.90;;;;;;5008819;28;20265;-73
2023/07/05 05:47:39;;;;;;;0.35;0.35;;;16.10;99.90;;;;;;4955496;29;20197;-71
2023/07/05 05:50:42;;;;;;;0.95;0.95;;;16.30;99.90;;;;;;4972174;28;20200;-72
2023/07/05 05:53:46;;;;;;;0.32;0.32;;;16.10;99.90;;;;;;4956270;28;20196;-72
2023/07/05 05:56:49;;;;;;;7.75;0.60;;;16.30;99.90;;;;;;4973992;28;20192;-72
2023/07/05 05:59:52;;;;;;;0.30;0.30;;;16.10;99.90;;;;;;4974046;28;20192;-73
2023/07/05 06:02:57;;;;;;;0.65;0.65;;;16.10;99.90;;;;;;4973511;28;20647;-72
2023/07/05 06:06:00;;;;;;;0.30;0.30;;;16.20;99.90;;;;;;4973377;28;20722;-72
2023/07/05 06:09:04;;;;;;;1.75;0.80;;;16.00;99.90;;;;;;4989054;28;20625;-72
2023/07/05 06:12:07;;;;;;;2.20;1.20;;;15.90;99.90;;;;;;4989145;28;20210;-71
2023/07/05 06:15:11;;;;;;;3.75;1.38;;;16.10;99.90;;;;;;4972494;28;20227;-72
2023/07/05 06:18:14;;;;;;;0.30;0.30;;;16.10;99.90;;;;;;4973802;28;21389;-72
2023/07/05 06:21:17;;;;;;;0.40;0.40;;;16.20;99.90;;;;;;4973805;28;20610;-73
2023/07/05 06:24:20;;;;;;;0.70;0.70;;;16.40;99.90;;;;;;4973895;28;20294;-72
2023/07/05 06:27:23;;;;;;;0.30;0.30;;;16.50;99.90;;;;;;4991455;28;20205;-73
2023/07/05 06:30:27;;;;;;;2.60;0.85;;;16.50;99.90;;;;;;4992334;28;20670;-72
2023/07/05 06:33:31;;;;;;;0.68;0.68;;;16.60;99.90;;;;;;4992865;28;20252;-72
2023/07/05 06:36:34;;;;;;;0.40;0.40;;;16.70;99.90;;;;;;4994180;28;20203;-72
2023/07/05 06:39:37;;;;;;;0.65;0.65;;;16.90;99.90;;;;;;4957730;29;20283;-71
2023/07/05 06:42:40;;;;;;;1.17;0.57;;;17.10;99.90;;;;;;4953595;29;20224;-73
2023/07/05 06:45:43;;;;;;;0.90;0.90;;;17.30;99.90;;;;;;4961467;28;20204;-73
2023/07/05 06:48:46;;;;;;;0.50;0.50;;;17.50;99.90;;;;;;4972781;28;20559;-73
2023/07/05 06:51:49;;;;;;;1.25;0.70;;;17.60;99.90;;;;;;4972563;28;20659;-72
2023/07/05 06:54:52;;;;;;;2.08;0.70;;;17.50;99.90;;;;;;4978409;28;20211;-73
2023/07/05 06:57:55;;;;;;;1.17;0.98;;;17.60;99.90;;;;;;4979351;28;20199;-74
2023/07/05 07:00:58;;;;;;;0.38;0.38;;;17.80;99.90;;;;;;4974463;28;20246;-72
2023/07/05 07:04:05;;;;;;;1.85;1.25;;;18.10;99.90;;;;;;4972657;28;20651;-73
2023/07/05 07:07:08;;;;;;;0.20;0.20;;;18.20;99.90;;;;;;4987548;28;20579;-72
2023/07/05 07:10:11;;;;;;;0.90;0.82;;;18.60;99.90;;;;;;4973512;28;20207;-72
2023/07/05 07:13:14;;;;;;;0.28;0.28;;;18.90;99.90;;;;;;4973923;28;20211;-72
2023/07/05 07:16:17;;;;;;;0.30;0.30;;;19.40;99.90;;;;;;4972565;28;20207;-73
2023/07/05 07:19:20;;;;;;;0.80;0.80;;;19.70;99.90;;;;;;4972383;28;20200;-74
2023/07/05 07:22:24;;;;;;;0.60;0.60;;;20.10;99.90;;;;;;4974291;28;20659;-75
2023/07/05 07:25:27;;;;;;;0.40;0.40;;;20.30;99.90;;;;;;4994313;28;20210;-74
2023/07/05 07:28:30;;;;;;;1.58;0.85;;;20.50;99.90;;;;;;4995816;28;20206;-72
2023/07/05 07:31:33;;;;;;;0.20;0.20;;;20.90;99.90;;;;;;4995793;28;20203;-74
2023/07/05 07:34:36;;;;;;;0.60;0.60;;;20.70;99.90;;;;;;4997141;28;20211;-72
2023/07/05 07:37:40;;;;;;;0.30;0.30;;;20.70;99.90;;;;;;4994329;28;20660;-71
2023/07/05 07:40:43;;;;;;;0.60;0.60;;;20.70;99.90;;;;;;4995706;28;20199;-70
2023/07/05 07:43:46;;;;;;;1.05;0.65;;;21.00;99.90;;;;;;4955202;29;20205;-70
2023/07/05 07:46:49;;;;;;;0.20;0.20;;;21.10;99.90;;;;;;4969424;28;20204;-70
2023/07/05 07:49:53;;;;;;;0.20;0.20;;;21.60;99.90;;;;;;4974300;28;20200;-71
2023/07/05 07:52:55;;;;;;;4.22;1.40;;;21.80;99.90;;;;;;4975038;28;20199;-70
2023/07/05 07:55:59;;;;;;;1.73;0.63;;;21.80;99.90;;;;;;4974637;28;20215;-70
2023/07/05 07:59:06;;;;;;;0.20;0.20;;;21.80;99.90;;;;;;4974549;28;20566;-70
2023/07/05 08:02:10;;;;;;;0.25;0.25;;;21.80;99.90;;;;;;4973706;28;20207;-70
2023/07/05 08:05:13;;;;;;;1.73;1.27;;;21.70;99.90;;;;;;4985049;28;20269;-70
2023/07/05 08:08:16;;;;;;;2.92;0.90;;;21.80;99.90;;;;;;4994369;28;20207;-70
2023/07/05 08:11:19;;;;;;;0.43;0.43;;;22.00;99.90;;;;;;5009593;28;20258;-69
2023/07/05 08:14:23;;;;;;;2.42;1.30;;;22.00;99.90;;;;;;4994273;28;20227;-71
2023/07/05 08:17:28;;;;;;;0.40;0.40;;;22.10;99.90;;;;;;4975203;28;20191;-70
2023/07/05 08:20:31;;;;;;;0.55;0.30;;;22.00;99.90;;;;;;4992456;28;20675;-70
2023/07/05 08:23:34;;;;;;;0.55;0.38;;;21.90;99.90;;;;;;4994129;28;20222;-69
2023/07/05 08:26:37;;;;;;;0.40;0.32;;;21.40;99.90;;;;;;4994034;28;20274;-70
2023/07/05 08:29:41;;;;;;;1.42;0.35;;;20.90;99.90;;;;;;4994063;28;20242;-70
2023/07/05 08:32:44;;;;;;;1.00;0.73;;;20.60;99.90;;;;;;4993939;28;20205;-72
2023/07/05 08:35:47;;;;;;;0.47;0.47;;;20.60;99.90;;;;;;4993958;28;20211;-72
2023/07/05 08:38:50;;;;;;;0.13;0.13;;;21.20;99.90;;;;;;4996622;28;20628;-72
2023/07/05 08:41:53;;;;;;;3.03;0.68;;;21.30;99.90;;;;;;4992501;28;20567;-72
2023/07/05 08:44:57;;;;;;;2.03;1.23;;;21.00;99.90;;;;;;5008663;28;20294;-72
2023/07/05 08:48:00;;;;;;;1.75;0.65;;;20.80;99.90;;;;;;4993936;28;20202;-70
2023/07/05 08:51:03;;;;;;;0.75;0.73;;;21.10;99.90;;;;;;5008140;28;20677;-71
2023/07/05 08:54:10;;;;;;;0.20;0.20;;;20.90;99.90;;;;;;4992974;28;20219;-72
2023/07/05 08:57:13;;;;;;;0.10;0.10;;;21.40;99.90;;;;;;5008589;28;20646;-72
2023/07/05 09:00:16;;;;;;;3.00;0.68;;;22.10;99.90;;;;;;4993293;28;20645;-72
2023/07/05 09:03:20;;;;;;;0.30;0.30;;;22.60;99.90;;;;;;4992055;28;20196;-70
2023/07/05 09:06:24;;;;;;;0.77;0.77;;;23.10;99.90;;;;;;4992637;28;20207;-69
2023/07/05 09:09:27;;;;;;;0.40;0.40;;;23.10;99.90;;;;;;4992167;28;20195;-70
2023/07/05 09:12:30;;;;;;;0.20;0.20;;;23.20;99.90;;;;;;4993248;28;20710;-69
2023/07/05 09:15:33;;;;;;;0.30;0.30;;;23.60;99.90;;;;;;5008237;28;20215;-69
2023/07/05 09:18:36;;;;;;;0.32;0.32;;;23.40;99.90;;;;;;4993312;28;20564;-69
2023/07/05 09:21:40;;;;;;;0.30;0.30;;;23.50;99.90;;;;;;4993270;28;20196;-69
2023/07/05 09:24:43;;;;;;;0.20;0.20;;;23.00;99.90;;;;;;4992586;28;20195;-70
2023/07/05 09:27:49;;;;;;;1.05;0.80;;;22.70;99.90;;;;;;4993002;28;20287;-70
2023/07/05 09:30:53;;;;;;;0.50;0.50;;;22.70;99.90;;;;;;4992660;28;20666;-69
2023/07/05 09:33:56;;;;;;;0.55;0.43;;;22.30;99.90;;;;;;4992797;28;20286;-69
2023/07/05 09:36:59;;;;;;;1.33;0.88;;;22.20;99.90;;;;;;4992769;28;20199;-69
2023/07/05 09:40:02;;;;;;;0.57;0.45;;;21.90;99.90;;;;;;4990891;28;20215;-70
2023/07/05 09:43:05;;;;;;;2.88;1.42;;;22.40;99.90;;;;;;4992271;28;20210;-68
2023/07/05 09:46:09;;;;;;;0.73;0.38;;;23.20;99.90;;;;;;4991741;28;20683;-69
2023/07/05 09:49:13;;;;;;;0.20;0.20;;;23.10;99.90;;;;;;4991475;28;20632;-68
2023/07/05 09:52:16;;;;;;;0.20;0.20;;;22.80;99.90;;;;;;4992258;28;20203;-68
2023/07/05 09:55:19;;;;;;;1.25;0.50;;;22.50;99.90;;;;;;4992006;28;20305;-69
2023/07/05 09:58:22;;;;;;;0.20;0.20;;;23.30;99.90;;;;;;4991841;28;20263;-69
2023/07/05 10:01:26;;;;;;;0.88;0.80;;;23.60;99.90;;;;;;4992257;28;20290;-70
2023/07/05 10:04:29;;;;;;;0.77;0.77;;;23.40;99.90;;;;;;4991944;28;20234;-69
2023/07/05 10:07:32;;;;;;;2.20;0.70;;;23.20;99.90;;;;;;4991982;28;20667;-71
2023/07/05 10:10:35;;;;;;;0.88;0.45;;;23.60;99.90;;;;;;4992267;28;20207;-68
2023/07/05 10:13:39;;;;;;;0.22;0.22;;;24.00;99.90;;;;;;4992296;28;20646;-69
2023/07/05 10:16:42;;;;;;;0.40;0.40;;;24.00;99.90;;;;;;4991658;28;20210;-70
2023/07/05 10:19:45;;;;;;;0.43;0.43;;;24.00;99.90;;;;;;4992149;28;20282;-70
2023/07/05 10:22:48;;;;;;;0.10;0.10;;;24.20;99.90;;;;;;4991001;28;20202;-71
2023/07/05 10:25:52;;;;;;;0.40;0.30;;;24.30;99.90;;;;;;4992294;28;20210;-70
2023/07/05 10:28:56;;;;;;;0.20;0.20;;;23.90;99.90;;;;;;4991844;28;20203;-69
2023/07/05 10:32:00;;;;;;;0.35;0.35;;;24.00;99.90;;;;;;4990576;28;20658;-70
2023/07/05 10:35:03;;;;;;;0.17;0.17;;;24.30;99.90;;;;;;4991411;28;20685;-69
2023/07/05 10:38:06;;;;;;;0.75;0.65;;;25.00;99.90;;;;;;5001001;28;20289;-70
2023/07/05 10:41:09;;;;;;;0.43;0.32;;;25.40;99.90;;;;;;5010932;28;20198;-70
2023/07/05 10:44:12;;;;;;;0.40;0.40;;;25.70;99.90;;;;;;5009545;28;20225;-70
2023/07/05 10:47:16;;;;;;;0.32;0.32;;;25.50;99.90;;;;;;5010806;28;20288;-69
2023/07/05 10:50:20;;;;;;;0.20;0.20;;;25.30;99.90;;;;;;5009396;28;20222;-69
2023/07/05 10:53:23;;;;;;;0.10;0.10;;;25.50;99.90;;;;;;5011344;28;20201;-70
2023/07/05 10:56:26;;;;;;;0.75;0.40;;;25.50;99.90;;;;;;5011553;28;20564;-70
2023/07/05 10:59:29;;;;;;;0.20;0.20;;;25.40;99.90;;;;;;5014612;28;20202;-70
2023/07/05 11:02:33;;;;;;;0.30;0.30;;;25.60;99.90;;;;;;5015320;28;20200;-69
2023/07/05 11:05:36;;;;;;;0.43;0.30;;;25.10;99.90;;;;;;4996226;28;20235;-68
2023/07/05 11:08:39;;;;;;;0.90;0.50;;;25.60;99.90;;;;;;4982860;28;20204;-69
2023/07/05 11:11:28;;;;;;;0.28;0.22;;;25.80;99.90;;;;;;4976337;28;20278;-69
2023/07/05 11:13:54;;;;;;;1.48;0.60;;;25.70;99.90;;;;;;4974899;28;20290;-69
2023/07/05 11:16:28;;;;;;;0.13;0.13;;;25.80;99.90;;;;;;4975651;28;20274;-70
2023/07/05 11:19:00;;;;;;;7.50;0.55;;;25.90;99.90;;;;;;4976013;28;20196;-70
2023/07/05 11:21:40;;;;;;;0.20;0.20;;;25.70;99.90;;;;;;4975828;28;20192;-68
2023/07/05 11:24:25;;;;;;;0.40;0.40;;;26.00;99.90;;;;;;4976014;28;20196;-69
2023/07/05 11:26:51;;;;;;;0.22;0.22;;;26.00;99.90;;;;;;4975836;28;20307;-70
2023/07/05 11:29:32;;;;;;;0.20;0.20;;;25.90;99.90;;;;;;4958252;28;20343;-70
2023/07/05 11:32:05;;;;;;;0.32;0.32;;;26.00;99.40;;;;;;4956265;29;20279;-69
2023/07/05 11:34:41;;;;;;;0.30;0.30;;;25.90;98.70;;;;;;4955799;29;20684;-69
2023/07/05 11:37:09;;;;;;;0.30;0.30;;;25.40;99.90;;;;;;4969345;28;20203;-69
2023/07/05 11:39:54;;;;;;;0.13;0.13;;;25.80;99.90;;;;;;4993580;28;20196;-69
2023/07/05 11:42:20;;;;;;;0.70;0.55;;;26.20;98.90;;;;;;4995287;28;20191;-69
2023/07/05 11:44:55;;;;;;;0.20;0.20;;;26.40;99.20;;;;;;4993671;28;20698;-69
2023/07/05 11:47:24;;;;;;;0.20;0.20;;;26.60;97.10;;;;;;4994524;28;20677;-69
2023/07/05 11:49:57;;;;;;;0.15;0.15;;;25.70;96.50;;;;;;4982904;28;20663;-68
2023/07/05 11:52:29;;;;;;;0.32;0.20;;;25.10;97.20;;;;;;4974887;28;20200;-69
2023/07/05 11:55:19;;;;;;;0.98;0.55;;;25.40;99.90;;;;;;4957900;28;20215;-69
2023/07/05 11:57:52;;;;;;;0.75;0.55;;;25.40;97.50;;;;;;4975227;28;20216;-69
2023/07/05 12:00:30;;;;;;;0.38;0.38;;;25.60;99.90;;;;;;4984362;28;20199;-69
2023/07/05 12:03:04;;;;;;;0.40;0.40;;;26.10;99.30;;;;;;4992354;28;20270;-69
2023/07/05 12:05:32;;;;;;;0.10;0.10;;;26.60;99.10;;;;;;4991904;28;20219;-68
2023/07/05 12:08:21;;;;;;;0.13;0.13;;;26.10;98.00;;;;;;4993758;28;20196;-68
2023/07/05 12:10:54;;;;;;;0.15;0.15;;;26.20;98.30;;;;;;4994470;28;20192;-69
2023/07/05 12:13:26;;;;;;;0.22;0.22;;;26.40;98.30;;;;;;4994221;28;20190;-69
2023/07/05 12:15:55;;;;;;;0.52;0.25;;;26.60;98.80;;;;;;4977043;28;20295;-69
2023/07/05 12:18:21;;;;;;;0.60;0.28;;;26.80;94.40;;;;;;4994040;28;20535;-68
2023/07/05 12:20:54;;;;;;;0.30;0.30;;;27.10;96.00;;;;;;4993987;28;20242;-69
2023/07/05 12:23:23;;;;;;;0.60;0.55;;;27.30;96.90;;;;;;4993360;28;20238;-69
2023/07/05 12:25:54;;;;;;;0.73;0.30;;;27.40;94.10;;;;;;4993674;28;20282;-69
2023/07/05 12:28:25;;;;;;;1.38;0.55;;;27.00;96.30;;;;;;4994045;28;20191;-69
2023/07/05 12:31:10;;;;;;;0.17;0.17;;;27.00;93.30;;;;;;4994243;28;20235;-69
2023/07/05 12:33:37;;;;;;;0.20;0.20;;;26.80;95.40;;;;;;4993834;28;20207;-69
2023/07/05 12:36:16;;;;;;;0.22;0.22;;;26.60;95.30;;;;;;4976554;28;20195;-69
2023/07/05 12:38:45;;;;;;;0.20;0.20;;;26.50;95.60;;;;;;4993912;28;20195;-70
2023/07/05 12:41:21;;;;;;;0.10;0.10;;;26.60;94.80;;;;;;4994047;28;20199;-69
2023/07/05 12:43:56;;;;;;;0.30;0.30;;;26.70;94.70;;;;;;4993708;28;20195;-70
2023/07/05 12:46:24;;;;;;;0.10;0.10;;;27.20;94.80;;;;;;4993326;28;20680;-70
2023/07/05 12:48:50;;;;;;;0.30;0.30;;;27.80;94.10;;;;;;4993533;28;20702;-70
2023/07/05 12:51:20;;;;;;;0.65;0.30;;;28.20;92.20;;;;;;4993622;28;20203;-70
2023/07/05 12:53:50;;;;;;;2.85;0.30;;;27.60;91.30;;;;;;4993625;28;20210;-70
2023/07/05 12:56:36;;;;;;;0.28;0.28;;;27.80;91.70;;;;;;4993428;28;20774;-69
2023/07/05 12:59:06;;;;;;;0.30;0.30;;;27.50;93.30;;;;;;5008689;28;20237;-70
2023/07/05 13:01:38;;;;;;;0.68;0.68;;;27.00;94.50;;;;;;4993131;28;20211;-70
2023/07/05 13:04:14;;;;;;;0.20;0.20;;;26.70;91.50;;;;;;4993501;28;20293;-69
2023/07/05 13:06:40;;;;;;;0.20;0.20;;;27.20;93.40;;;;;;4993238;28;20277;-70
2023/07/05 13:09:07;;;;;;;0.10;0.10;;;27.40;93.50;;;;;;4993620;28;20187;-70
2023/07/05 13:11:33;;;;;;;0.20;0.20;;;27.50;93.40;;;;;;4993144;28;20191;-70
2023/07/05 13:14:02;;;;;;;0.65;0.28;;;27.20;92.00;;;;;;4993340;28;20733;-70
2023/07/05 13:16:46;;;;;;;0.30;0.30;;;27.60;92.50;;;;;;4993000;28;20662;-70
2023/07/05 13:19:12;;;;;;;0.47;0.32;;;27.30;91.70;;;;;;4992979;28;20187;-70
2023/07/05 13:21:47;;;;;;;0.20;0.20;;;27.60;93.20;;;;;;4992252;28;20207;-70
2023/07/05 13:24:28;;;;;;;0.10;0.10;;;27.80;92.10;;;;;;4992883;28;20194;-70
2023/07/05 13:26:55;;;;;;;0.20;0.20;;;27.80;92.90;;;;;;4993281;28;20195;-70
2023/07/05 13:29:36;;;;;;;0.20;0.20;;;27.70;89.60;;;;;;4992719;28;20254;-70
2023/07/05 13:32:01;;;;;;;0.50;0.30;;;26.50;91.10;;;;;;4975353;28;20757;-70
2023/07/05 13:34:28;;;;;;;1.95;0.20;;;26.00;92.10;;;;;;4992775;28;20207;-70
2023/07/05 13:37:11;;;;;;;0.10;0.10;;;24.80;91.90;;;;;;4997657;28;20567;-70
2023/07/05 13:39:37;;;;;;;0.15;0.15;;;24.00;94.80;;;;;;5012252;28;20266;-70
2023/07/05 13:42:03;;;;;;;0.15;0.15;;;24.10;93.50;;;;;;5010925;28;20294;-70
2023/07/05 13:44:29;;;;;;;0.20;0.20;;;24.20;94.00;;;;;;5012288;28;20214;-70
2023/07/05 13:46:54;;;;;;;0.55;0.52;;;24.00;94.10;;;;;;5012512;28;20233;-70
2023/07/05 13:49:20;;;;;;;3.03;0.52;;;24.10;94.90;;;;;;5012118;28;20190;-69
2023/07/05 13:51:54;;;;;;;0.30;0.30;;;23.90;94.90;;;;;;5009082;28;20207;-69
2023/07/05 13:54:20;;;;;;;0.20;0.20;;;23.40;94.40;;;;;;4991892;28;20686;-69
2023/07/05 13:56:46;;;;;;;1.38;0.50;;;23.30;96.20;;;;;;4992950;28;20203;-70
2023/07/05 13:59:15;;;;;;;0.10;0.10;;;23.40;96.30;;;;;;4992516;28;20214;-69
2023/07/05 14:01:42;;;;;;;0.20;0.20;;;23.50;97.10;;;;;;4990966;28;20286;-69
2023/07/05 14:04:13;;;;;;;0.45;0.40;;;23.80;95.40;;;;;;4992078;28;20230;-70